sensor_id;sensor_type;location;lat;lon;timestamp;P1;durP1;ratioP1;P2;durP2;ratioP2
33654;SDS011;19997;51.274;22.506;2023-05-23T00:01:13;9.52;;;5.20;;
33654;SDS011;19997;51.274;22.506;2023-05-23T00:03:42;9.65;;;4.43;;
33654;SDS011;19997;51.274;22.506;2023-05-23T00:06:09;15.13;;;6.40;;
33654;SDS011;19997;51.274;22.506;2023-05-23T00:08:36;9.98;;;5.00;;
33654;SDS011;19997;51.274;22.506;2023-05-23T00:11:03;7.43;;;4.88;;
33654;SDS011;19997;51.274;22.506;2023-05-23T00:13:30;12.68;;;5.20;;
33654;SDS011;19997;51.274;22.506;2023-05-23T00:15:58;7.60;;;4.78;;
33654;SDS011;19997;51.274;22.506;2023-05-23T00:18:26;8.90;;;4.63;;
33654;SDS011;19997;51.274;22.506;2023-05-23T00:20:56;7.10;;;4.93;;
33654;SDS011;19997;51.274;22.506;2023-05-23T00:23:24;9.57;;;4.60;;
33654;SDS011;19997;51.274;22.506;2023-05-23T00:25:53;10.70;;;4.40;;
33654;SDS011;19997;51.274;22.506;2023-05-23T00:28:22;10.70;;;4.97;;
33654;SDS011;19997;51.274;22.506;2023-05-23T00:30:50;8.07;;;4.75;;
33654;SDS011;19997;51.274;22.506;2023-05-23T00:33:17;9.85;;;5.22;;
33654;SDS011;19997;51.274;22.506;2023-05-23T00:35:46;7.55;;;4.47;;
33654;SDS011;19997;51.274;22.506;2023-05-23T00:38:15;10.30;;;4.93;;
33654;SDS011;19997;51.274;22.506;2023-05-23T00:40:42;8.30;;;5.05;;
33654;SDS011;19997;51.274;22.506;2023-05-23T00:43:09;8.70;;;4.57;;
33654;SDS011;19997;51.274;22.506;2023-05-23T00:45:38;8.88;;;4.75;;
33654;SDS011;19997;51.274;22.506;2023-05-23T00:48:05;10.77;;;4.45;;
33654;SDS011;19997;51.274;22.506;2023-05-23T00:50:33;10.30;;;4.68;;
33654;SDS011;19997;51.274;22.506;2023-05-23T00:53:01;8.23;;;4.50;;
33654;SDS011;19997;51.274;22.506;2023-05-23T00:55:29;11.98;;;4.82;;
33654;SDS011;19997;51.274;22.506;2023-05-23T00:57:56;8.13;;;4.38;;
33654;SDS011;19997;51.274;22.506;2023-05-23T01:00:24;10.20;;;4.65;;
33654;SDS011;19997;51.274;22.506;2023-05-23T01:02:52;8.63;;;4.32;;
33654;SDS011;19997;51.274;22.506;2023-05-23T01:05:19;7.45;;;4.82;;
33654;SDS011;19997;51.274;22.506;2023-05-23T01:07:49;10.43;;;5.70;;
33654;SDS011;19997;51.274;22.506;2023-05-23T01:10:17;11.38;;;5.15;;
33654;SDS011;19997;51.274;22.506;2023-05-23T01:13:05;16.52;;;6.63;;
33654;SDS011;19997;51.274;22.506;2023-05-23T01:15:40;8.63;;;4.50;;
33654;SDS011;19997;51.274;22.506;2023-05-23T01:18:11;9.65;;;4.75;;
33654;SDS011;19997;51.274;22.506;2023-05-23T01:20:42;9.57;;;5.13;;
33654;SDS011;19997;51.274;22.506;2023-05-23T01:23:25;7.65;;;4.10;;
33654;SDS011;19997;51.274;22.506;2023-05-23T01:26:12;7.35;;;4.10;;
33654;SDS011;19997;51.274;22.506;2023-05-23T01:28:54;9.68;;;4.47;;
33654;SDS011;19997;51.274;22.506;2023-05-23T01:31:23;8.80;;;4.55;;
33654;SDS011;19997;51.274;22.506;2023-05-23T01:33:55;9.15;;;4.90;;
33654;SDS011;19997;51.274;22.506;2023-05-23T01:36:22;9.15;;;4.88;;
33654;SDS011;19997;51.274;22.506;2023-05-23T01:38:50;11.80;;;5.05;;
33654;SDS011;19997;51.274;22.506;2023-05-23T01:41:18;6.95;;;4.68;;
33654;SDS011;19997;51.274;22.506;2023-05-23T01:43:45;7.95;;;4.32;;
33654;SDS011;19997;51.274;22.506;2023-05-23T01:46:14;10.13;;;5.05;;
33654;SDS011;19997;51.274;22.506;2023-05-23T01:48:42;8.98;;;4.85;;
33654;SDS011;19997;51.274;22.506;2023-05-23T01:51:10;7.93;;;4.60;;
33654;SDS011;19997;51.274;22.506;2023-05-23T01:53:37;9.90;;;4.82;;
33654;SDS011;19997;51.274;22.506;2023-05-23T01:56:04;10.05;;;5.32;;
33654;SDS011;19997;51.274;22.506;2023-05-23T01:58:32;10.32;;;4.95;;
33654;SDS011;19997;51.274;22.506;2023-05-23T02:01:00;8.02;;;4.68;;
33654;SDS011;19997;51.274;22.506;2023-05-23T02:03:28;9.63;;;4.05;;
33654;SDS011;19997;51.274;22.506;2023-05-23T02:05:55;8.80;;;4.35;;
33654;SDS011;19997;51.274;22.506;2023-05-23T02:08:26;8.73;;;4.20;;
33654;SDS011;19997;51.274;22.506;2023-05-23T02:10:53;8.35;;;4.47;;
33654;SDS011;19997;51.274;22.506;2023-05-23T02:13:20;8.05;;;4.80;;
33654;SDS011;19997;51.274;22.506;2023-05-23T02:15:47;9.73;;;4.82;;
33654;SDS011;19997;51.274;22.506;2023-05-23T02:18:15;7.47;;;4.82;;
33654;SDS011;19997;51.274;22.506;2023-05-23T02:20:43;9.13;;;4.72;;
33654;SDS011;19997;51.274;22.506;2023-05-23T02:23:11;12.25;;;4.43;;
33654;SDS011;19997;51.274;22.506;2023-05-23T02:25:38;13.50;;;4.72;;
33654;SDS011;19997;51.274;22.506;2023-05-23T02:28:05;8.23;;;4.57;;
33654;SDS011;19997;51.274;22.506;2023-05-23T02:30:32;12.25;;;5.22;;
33654;SDS011;19997;51.274;22.506;2023-05-23T02:33:03;6.80;;;4.03;;
33654;SDS011;19997;51.274;22.506;2023-05-23T02:35:30;10.05;;;4.88;;
33654;SDS011;19997;51.274;22.506;2023-05-23T02:37:59;10.98;;;5.20;;
33654;SDS011;19997;51.274;22.506;2023-05-23T02:40:26;7.70;;;4.47;;
33654;SDS011;19997;51.274;22.506;2023-05-23T02:42:53;7.45;;;4.78;;
33654;SDS011;19997;51.274;22.506;2023-05-23T02:45:22;12.90;;;5.00;;
33654;SDS011;19997;51.274;22.506;2023-05-23T02:47:50;11.02;;;5.07;;
33654;SDS011;19997;51.274;22.506;2023-05-23T02:50:17;10.52;;;5.07;;
33654;SDS011;19997;51.274;22.506;2023-05-23T02:52:44;8.52;;;5.07;;
33654;SDS011;19997;51.274;22.506;2023-05-23T02:55:13;8.48;;;4.38;;
33654;SDS011;19997;51.274;22.506;2023-05-23T02:57:44;8.40;;;5.20;;
33654;SDS011;19997;51.274;22.506;2023-05-23T03:00:11;12.13;;;5.55;;
33654;SDS011;19997;51.274;22.506;2023-05-23T03:02:41;8.10;;;4.78;;
33654;SDS011;19997;51.274;22.506;2023-05-23T03:05:08;7.97;;;4.70;;
33654;SDS011;19997;51.274;22.506;2023-05-23T03:07:35;11.30;;;4.75;;
33654;SDS011;19997;51.274;22.506;2023-05-23T03:10:02;7.45;;;5.00;;
33654;SDS011;19997;51.274;22.506;2023-05-23T03:12:31;7.35;;;4.30;;
33654;SDS011;19997;51.274;22.506;2023-05-23T03:14:58;8.18;;;5.25;;
33654;SDS011;19997;51.274;22.506;2023-05-23T03:17:26;10.85;;;4.88;;
33654;SDS011;19997;51.274;22.506;2023-05-23T03:19:55;16.67;;;5.28;;
33654;SDS011;19997;51.274;22.506;2023-05-23T03:22:22;10.98;;;4.70;;
33654;SDS011;19997;51.274;22.506;2023-05-23T03:24:49;6.65;;;4.50;;
33654;SDS011;19997;51.274;22.506;2023-05-23T03:27:17;13.40;;;4.65;;
33654;SDS011;19997;51.274;22.506;2023-05-23T03:29:45;14.77;;;4.95;;
33654;SDS011;19997;51.274;22.506;2023-05-23T03:32:13;9.43;;;4.50;;
33654;SDS011;19997;51.274;22.506;2023-05-23T03:34:40;7.70;;;4.53;;
33654;SDS011;19997;51.274;22.506;2023-05-23T03:37:07;10.35;;;4.72;;
33654;SDS011;19997;51.274;22.506;2023-05-23T03:39:34;12.70;;;5.32;;
33654;SDS011;19997;51.274;22.506;2023-05-23T03:42:01;9.45;;;5.05;;
33654;SDS011;19997;51.274;22.506;2023-05-23T03:44:28;9.43;;;4.40;;
33654;SDS011;19997;51.274;22.506;2023-05-23T03:46:57;10.25;;;4.72;;
33654;SDS011;19997;51.274;22.506;2023-05-23T03:49:24;9.98;;;4.72;;
33654;SDS011;19997;51.274;22.506;2023-05-23T03:51:51;7.68;;;4.40;;
33654;SDS011;19997;51.274;22.506;2023-05-23T03:54:18;8.48;;;4.25;;
33654;SDS011;19997;51.274;22.506;2023-05-23T03:56:45;8.38;;;4.65;;
33654;SDS011;19997;51.274;22.506;2023-05-23T03:59:13;9.23;;;4.57;;
33654;SDS011;19997;51.274;22.506;2023-05-23T04:01:40;10.60;;;4.13;;
33654;SDS011;19997;51.274;22.506;2023-05-23T04:04:08;9.88;;;4.90;;
33654;SDS011;19997;51.274;22.506;2023-05-23T04:06:36;8.93;;;4.10;;
33654;SDS011;19997;51.274;22.506;2023-05-23T04:09:03;10.82;;;4.97;;
33654;SDS011;19997;51.274;22.506;2023-05-23T04:11:35;9.48;;;4.65;;
33654;SDS011;19997;51.274;22.506;2023-05-23T04:14:02;10.18;;;4.43;;
33654;SDS011;19997;51.274;22.506;2023-05-23T04:16:29;8.85;;;5.07;;
33654;SDS011;19997;51.274;22.506;2023-05-23T04:19:00;9.00;;;4.85;;
33654;SDS011;19997;51.274;22.506;2023-05-23T04:21:30;12.02;;;4.72;;
33654;SDS011;19997;51.274;22.506;2023-05-23T04:24:05;7.97;;;4.50;;
33654;SDS011;19997;51.274;22.506;2023-05-23T04:26:33;7.10;;;4.13;;
33654;SDS011;19997;51.274;22.506;2023-05-23T04:29:01;11.57;;;4.75;;
33654;SDS011;19997;51.274;22.506;2023-05-23T04:31:30;12.05;;;4.38;;
33654;SDS011;19997;51.274;22.506;2023-05-23T04:33:59;12.05;;;4.70;;
33654;SDS011;19997;51.274;22.506;2023-05-23T04:36:30;8.07;;;3.92;;
33654;SDS011;19997;51.274;22.506;2023-05-23T04:38:57;7.97;;;4.28;;
33654;SDS011;19997;51.274;22.506;2023-05-23T04:41:25;7.55;;;4.32;;
33654;SDS011;19997;51.274;22.506;2023-05-23T04:44:01;10.15;;;4.25;;
33654;SDS011;19997;51.274;22.506;2023-05-23T04:46:34;9.90;;;4.10;;
33654;SDS011;19997;51.274;22.506;2023-05-23T04:49:14;6.22;;;3.90;;
33654;SDS011;19997;51.274;22.506;2023-05-23T04:51:42;6.32;;;3.55;;
33654;SDS011;19997;51.274;22.506;2023-05-23T04:54:27;4.38;;;3.42;;
33654;SDS011;19997;51.274;22.506;2023-05-23T04:56:56;8.67;;;4.00;;
33654;SDS011;19997;51.274;22.506;2023-05-23T04:59:25;5.93;;;3.92;;
33654;SDS011;19997;51.274;22.506;2023-05-23T05:01:52;9.93;;;3.50;;
33654;SDS011;19997;51.274;22.506;2023-05-23T05:04:20;5.63;;;3.47;;
33654;SDS011;19997;51.274;22.506;2023-05-23T05:06:48;6.95;;;4.38;;
33654;SDS011;19997;51.274;22.506;2023-05-23T05:09:16;7.38;;;4.25;;
33654;SDS011;19997;51.274;22.506;2023-05-23T05:11:44;6.00;;;3.67;;
33654;SDS011;19997;51.274;22.506;2023-05-23T05:14:12;9.57;;;3.38;;
33654;SDS011;19997;51.274;22.506;2023-05-23T05:16:39;11.10;;;3.90;;
33654;SDS011;19997;51.274;22.506;2023-05-23T05:19:07;9.15;;;4.35;;
33654;SDS011;19997;51.274;22.506;2023-05-23T05:21:34;8.90;;;3.50;;
33654;SDS011;19997;51.274;22.506;2023-05-23T05:24:02;6.53;;;4.10;;
33654;SDS011;19997;51.274;22.506;2023-05-23T05:26:30;8.60;;;3.78;;
33654;SDS011;19997;51.274;22.506;2023-05-23T05:28:57;9.48;;;4.45;;
33654;SDS011;19997;51.274;22.506;2023-05-23T05:31:25;8.43;;;4.55;;
33654;SDS011;19997;51.274;22.506;2023-05-23T05:33:53;7.18;;;3.55;;
33654;SDS011;19997;51.274;22.506;2023-05-23T05:36:20;6.35;;;3.97;;
33654;SDS011;19997;51.274;22.506;2023-05-23T05:38:49;7.80;;;4.15;;
33654;SDS011;19997;51.274;22.506;2023-05-23T05:41:20;13.88;;;4.63;;
33654;SDS011;19997;51.274;22.506;2023-05-23T05:43:49;13.98;;;4.90;;
33654;SDS011;19997;51.274;22.506;2023-05-23T05:46:16;9.32;;;3.33;;
33654;SDS011;19997;51.274;22.506;2023-05-23T05:51:30;10.68;;;4.07;;
33654;SDS011;19997;51.274;22.506;2023-05-23T05:53:57;10.02;;;4.15;;
33654;SDS011;19997;51.274;22.506;2023-05-23T05:56:26;11.98;;;3.75;;
33654;SDS011;19997;51.274;22.506;2023-05-23T05:58:53;6.65;;;3.92;;
33654;SDS011;19997;51.274;22.506;2023-05-23T06:01:21;11.30;;;4.40;;
33654;SDS011;19997;51.274;22.506;2023-05-23T06:03:49;10.95;;;4.00;;
33654;SDS011;19997;51.274;22.506;2023-05-23T06:06:17;10.32;;;3.90;;
33654;SDS011;19997;51.274;22.506;2023-05-23T06:08:45;5.50;;;3.25;;
33654;SDS011;19997;51.274;22.506;2023-05-23T06:11:15;9.30;;;4.63;;
33654;SDS011;19997;51.274;22.506;2023-05-23T06:13:43;11.50;;;4.18;;
33654;SDS011;19997;51.274;22.506;2023-05-23T06:16:10;8.80;;;3.38;;
33654;SDS011;19997;51.274;22.506;2023-05-23T06:18:39;8.50;;;3.80;;
33654;SDS011;19997;51.274;22.506;2023-05-23T06:21:07;9.43;;;3.30;;
33654;SDS011;19997;51.274;22.506;2023-05-23T06:23:35;4.72;;;3.35;;
33654;SDS011;19997;51.274;22.506;2023-05-23T06:26:03;10.23;;;3.90;;
33654;SDS011;19997;51.274;22.506;2023-05-23T06:28:34;12.20;;;3.97;;
33654;SDS011;19997;51.274;22.506;2023-05-23T06:31:04;9.82;;;3.60;;
33654;SDS011;19997;51.274;22.506;2023-05-23T06:33:34;5.70;;;3.55;;
33654;SDS011;19997;51.274;22.506;2023-05-23T06:36:02;6.68;;;3.92;;
33654;SDS011;19997;51.274;22.506;2023-05-23T06:38:30;9.93;;;4.10;;
33654;SDS011;19997;51.274;22.506;2023-05-23T06:40:59;8.85;;;3.38;;
33654;SDS011;19997;51.274;22.506;2023-05-23T06:43:27;11.57;;;5.25;;
33654;SDS011;19997;51.274;22.506;2023-05-23T06:46:11;8.57;;;3.08;;
33654;SDS011;19997;51.274;22.506;2023-05-23T06:48:39;8.20;;;3.45;;
33654;SDS011;19997;51.274;22.506;2023-05-23T06:51:07;4.95;;;3.65;;
33654;SDS011;19997;51.274;22.506;2023-05-23T06:53:34;8.23;;;3.78;;
33654;SDS011;19997;51.274;22.506;2023-05-23T06:56:02;11.13;;;4.22;;
33654;SDS011;19997;51.274;22.506;2023-05-23T06:58:35;10.75;;;5.65;;
33654;SDS011;19997;51.274;22.506;2023-05-23T07:01:02;8.20;;;3.72;;
33654;SDS011;19997;51.274;22.506;2023-05-23T07:03:34;13.95;;;4.00;;
33654;SDS011;19997;51.274;22.506;2023-05-23T07:06:04;8.00;;;3.50;;
33654;SDS011;19997;51.274;22.506;2023-05-23T07:08:32;9.68;;;3.38;;
33654;SDS011;19997;51.274;22.506;2023-05-23T07:11:00;15.27;;;3.55;;
33654;SDS011;19997;51.274;22.506;2023-05-23T07:13:31;8.65;;;3.72;;
33654;SDS011;19997;51.274;22.506;2023-05-23T07:15:58;16.48;;;3.78;;
33654;SDS011;19997;51.274;22.506;2023-05-23T07:18:26;6.00;;;3.03;;
33654;SDS011;19997;51.274;22.506;2023-05-23T07:20:56;12.98;;;3.60;;
33654;SDS011;19997;51.274;22.506;2023-05-23T07:23:24;9.00;;;3.05;;
33654;SDS011;19997;51.274;22.506;2023-05-23T07:25:51;4.60;;;3.53;;
33654;SDS011;19997;51.274;22.506;2023-05-23T07:28:24;6.97;;;3.00;;
33654;SDS011;19997;51.274;22.506;2023-05-23T07:30:53;12.52;;;3.33;;
33654;SDS011;19997;51.274;22.506;2023-05-23T07:33:21;9.85;;;3.88;;
33654;SDS011;19997;51.274;22.506;2023-05-23T07:35:49;5.03;;;3.05;;
33654;SDS011;19997;51.274;22.506;2023-05-23T07:38:18;9.50;;;3.25;;
33654;SDS011;19997;51.274;22.506;2023-05-23T07:40:45;6.70;;;3.38;;
33654;SDS011;19997;51.274;22.506;2023-05-23T07:43:12;14.27;;;3.35;;
33654;SDS011;19997;51.274;22.506;2023-05-23T07:45:39;9.50;;;3.70;;
33654;SDS011;19997;51.274;22.506;2023-05-23T07:48:07;8.52;;;3.65;;
33654;SDS011;19997;51.274;22.506;2023-05-23T07:50:35;7.18;;;3.80;;
33654;SDS011;19997;51.274;22.506;2023-05-23T07:53:03;8.20;;;3.70;;
33654;SDS011;19997;51.274;22.506;2023-05-23T07:55:33;7.07;;;3.30;;
33654;SDS011;19997;51.274;22.506;2023-05-23T07:58:00;5.43;;;3.05;;
33654;SDS011;19997;51.274;22.506;2023-05-23T08:00:28;6.13;;;3.03;;
33654;SDS011;19997;51.274;22.506;2023-05-23T08:03:02;9.35;;;3.22;;
33654;SDS011;19997;51.274;22.506;2023-05-23T08:05:36;5.32;;;3.20;;
33654;SDS011;19997;51.274;22.506;2023-05-23T08:08:05;9.02;;;4.25;;
33654;SDS011;19997;51.274;22.506;2023-05-23T08:10:34;8.32;;;3.15;;
33654;SDS011;19997;51.274;22.506;2023-05-23T08:13:08;8.43;;;3.30;;
33654;SDS011;19997;51.274;22.506;2023-05-23T08:15:44;4.50;;;2.80;;
33654;SDS011;19997;51.274;22.506;2023-05-23T08:18:15;6.75;;;2.78;;
33654;SDS011;19997;51.274;22.506;2023-05-23T08:20:42;7.32;;;2.58;;
33654;SDS011;19997;51.274;22.506;2023-05-23T08:23:09;7.43;;;3.58;;
33654;SDS011;19997;51.274;22.506;2023-05-23T08:25:39;5.97;;;2.90;;
33654;SDS011;19997;51.274;22.506;2023-05-23T08:28:06;6.32;;;3.15;;
33654;SDS011;19997;51.274;22.506;2023-05-23T08:30:43;6.68;;;3.05;;
33654;SDS011;19997;51.274;22.506;2023-05-23T08:33:11;4.28;;;2.95;;
33654;SDS011;19997;51.274;22.506;2023-05-23T08:35:40;9.70;;;3.33;;
33654;SDS011;19997;51.274;22.506;2023-05-23T08:38:09;6.00;;;3.47;;
33654;SDS011;19997;51.274;22.506;2023-05-23T08:40:48;5.63;;;3.38;;
33654;SDS011;19997;51.274;22.506;2023-05-23T08:43:17;5.38;;;3.13;;
33654;SDS011;19997;51.274;22.506;2023-05-23T08:45:45;6.10;;;3.22;;
33654;SDS011;19997;51.274;22.506;2023-05-23T08:48:14;6.70;;;3.33;;
33654;SDS011;19997;51.274;22.506;2023-05-23T08:50:47;9.52;;;3.55;;
33654;SDS011;19997;51.274;22.506;2023-05-23T08:53:18;3.70;;;2.75;;
33654;SDS011;19997;51.274;22.506;2023-05-23T08:55:57;7.03;;;3.53;;
33654;SDS011;19997;51.274;22.506;2023-05-23T08:58:31;7.72;;;3.33;;
33654;SDS011;19997;51.274;22.506;2023-05-23T09:01:03;4.70;;;2.90;;
33654;SDS011;19997;51.274;22.506;2023-05-23T09:03:31;5.20;;;3.33;;
33654;SDS011;19997;51.274;22.506;2023-05-23T09:08:48;6.05;;;2.63;;
33654;SDS011;19997;51.274;22.506;2023-05-23T09:13:49;4.38;;;2.63;;
33654;SDS011;19997;51.274;22.506;2023-05-23T09:16:17;6.57;;;3.22;;
33654;SDS011;19997;51.274;22.506;2023-05-23T09:18:49;7.00;;;3.22;;
33654;SDS011;19997;51.274;22.506;2023-05-23T09:21:19;9.00;;;3.38;;
33654;SDS011;19997;51.274;22.506;2023-05-23T09:24:13;9.13;;;3.97;;
33654;SDS011;19997;51.274;22.506;2023-05-23T09:26:42;5.05;;;2.70;;
33654;SDS011;19997;51.274;22.506;2023-05-23T09:29:13;10.52;;;2.95;;
33654;SDS011;19997;51.274;22.506;2023-05-23T09:31:44;6.45;;;3.03;;
33654;SDS011;19997;51.274;22.506;2023-05-23T09:34:11;5.97;;;3.55;;
33654;SDS011;19997;51.274;22.506;2023-05-23T09:36:39;7.80;;;2.80;;
33654;SDS011;19997;51.274;22.506;2023-05-23T09:39:09;7.50;;;3.17;;
33654;SDS011;19997;51.274;22.506;2023-05-23T09:41:37;5.57;;;3.13;;
33654;SDS011;19997;51.274;22.506;2023-05-23T09:44:07;6.05;;;3.60;;
33654;SDS011;19997;51.274;22.506;2023-05-23T09:46:35;6.03;;;3.45;;
33654;SDS011;19997;51.274;22.506;2023-05-23T09:49:13;8.85;;;3.42;;
33654;SDS011;19997;51.274;22.506;2023-05-23T09:51:43;3.63;;;2.67;;
33654;SDS011;19997;51.274;22.506;2023-05-23T09:54:24;6.32;;;3.55;;
33654;SDS011;19997;51.274;22.506;2023-05-23T09:56:52;5.30;;;2.85;;
33654;SDS011;19997;51.274;22.506;2023-05-23T09:59:22;5.93;;;4.00;;
33654;SDS011;19997;51.274;22.506;2023-05-23T10:01:53;8.43;;;3.72;;
33654;SDS011;19997;51.274;22.506;2023-05-23T10:04:30;10.70;;;3.13;;
33654;SDS011;19997;51.274;22.506;2023-05-23T10:07:03;5.38;;;3.05;;
33654;SDS011;19997;51.274;22.506;2023-05-23T10:09:34;7.68;;;3.55;;
33654;SDS011;19997;51.274;22.506;2023-05-23T10:15:12;6.78;;;2.70;;
33654;SDS011;19997;51.274;22.506;2023-05-23T10:17:52;4.25;;;2.38;;
33654;SDS011;19997;51.274;22.506;2023-05-23T10:20:25;11.25;;;3.55;;
33654;SDS011;19997;51.274;22.506;2023-05-23T10:22:56;5.85;;;3.63;;
33654;SDS011;19997;51.274;22.506;2023-05-23T10:25:25;5.60;;;3.13;;
33654;SDS011;19997;51.274;22.506;2023-05-23T10:27:55;4.88;;;2.60;;
33654;SDS011;19997;51.274;22.506;2023-05-23T10:30:25;4.60;;;2.85;;
33654;SDS011;19997;51.274;22.506;2023-05-23T10:32:53;7.27;;;3.03;;
33654;SDS011;19997;51.274;22.506;2023-05-23T10:35:22;4.90;;;2.53;;
33654;SDS011;19997;51.274;22.506;2023-05-23T10:38:07;4.15;;;2.70;;
33654;SDS011;19997;51.274;22.506;2023-05-23T10:40:45;5.90;;;2.65;;
33654;SDS011;19997;51.274;22.506;2023-05-23T10:43:22;8.80;;;2.65;;
33654;SDS011;19997;51.274;22.506;2023-05-23T10:45:56;4.72;;;2.70;;
33654;SDS011;19997;51.274;22.506;2023-05-23T10:48:30;4.20;;;2.17;;
33654;SDS011;19997;51.274;22.506;2023-05-23T10:51:02;4.70;;;2.85;;
33654;SDS011;19997;51.274;22.506;2023-05-23T10:53:31;12.70;;;3.65;;
33654;SDS011;19997;51.274;22.506;2023-05-23T10:56:00;5.03;;;2.80;;
33654;SDS011;19997;51.274;22.506;2023-05-23T10:58:30;6.13;;;2.40;;
33654;SDS011;19997;51.274;22.506;2023-05-23T11:01:00;4.55;;;2.92;;
33654;SDS011;19997;51.274;22.506;2023-05-23T11:03:35;6.18;;;2.53;;
33654;SDS011;19997;51.274;22.506;2023-05-23T11:06:03;6.85;;;2.53;;
33654;SDS011;19997;51.274;22.506;2023-05-23T11:08:38;13.63;;;3.78;;
33654;SDS011;19997;51.274;22.506;2023-05-23T11:11:10;5.20;;;2.88;;
33654;SDS011;19997;51.274;22.506;2023-05-23T11:13:56;9.57;;;3.15;;
33654;SDS011;19997;51.274;22.506;2023-05-23T11:16:28;13.17;;;3.87;;
33654;SDS011;19997;51.274;22.506;2023-05-23T11:21:53;5.57;;;2.53;;
33654;SDS011;19997;51.274;22.506;2023-05-23T11:24:22;5.05;;;2.53;;
33654;SDS011;19997;51.274;22.506;2023-05-23T11:26:52;2.58;;;1.73;;
33654;SDS011;19997;51.274;22.506;2023-05-23T11:29:24;3.33;;;2.20;;
33654;SDS011;19997;51.274;22.506;2023-05-23T11:31:54;5.82;;;2.35;;
33654;SDS011;19997;51.274;22.506;2023-05-23T11:34:21;4.57;;;2.33;;
33654;SDS011;19997;51.274;22.506;2023-05-23T11:36:51;4.53;;;2.40;;
33654;SDS011;19997;51.274;22.506;2023-05-23T11:39:19;8.90;;;3.80;;
33654;SDS011;19997;51.274;22.506;2023-05-23T11:41:49;3.85;;;2.42;;
33654;SDS011;19997;51.274;22.506;2023-05-23T11:44:24;3.85;;;2.42;;
33654;SDS011;19997;51.274;22.506;2023-05-23T11:47:02;10.52;;;2.47;;
33654;SDS011;19997;51.274;22.506;2023-05-23T11:49:31;5.45;;;2.47;;
33654;SDS011;19997;51.274;22.506;2023-05-23T11:52:02;5.35;;;2.15;;
33654;SDS011;19997;51.274;22.506;2023-05-23T11:54:30;4.30;;;2.15;;
33654;SDS011;19997;51.274;22.506;2023-05-23T11:56:58;10.02;;;2.38;;
33654;SDS011;19997;51.274;22.506;2023-05-23T11:59:25;7.25;;;3.42;;
33654;SDS011;19997;51.274;22.506;2023-05-23T12:01:53;5.38;;;2.40;;
33654;SDS011;19997;51.274;22.506;2023-05-23T12:04:23;6.38;;;2.28;;
33654;SDS011;19997;51.274;22.506;2023-05-23T12:09:17;3.03;;;2.35;;
33654;SDS011;19997;51.274;22.506;2023-05-23T12:11:47;3.50;;;2.22;;
33654;SDS011;19997;51.274;22.506;2023-05-23T12:14:16;10.75;;;2.85;;
33654;SDS011;19997;51.274;22.506;2023-05-23T12:16:43;3.53;;;2.38;;
33654;SDS011;19997;51.274;22.506;2023-05-23T12:19:11;4.53;;;2.22;;
33654;SDS011;19997;51.274;22.506;2023-05-23T12:21:42;5.22;;;1.90;;
33654;SDS011;19997;51.274;22.506;2023-05-23T12:24:11;3.80;;;1.95;;
33654;SDS011;19997;51.274;22.506;2023-05-23T12:26:50;2.72;;;1.80;;
33654;SDS011;19997;51.274;22.506;2023-05-23T12:29:19;3.20;;;2.05;;
33654;SDS011;19997;51.274;22.506;2023-05-23T12:31:47;4.18;;;2.05;;
33654;SDS011;19997;51.274;22.506;2023-05-23T12:34:15;4.05;;;2.30;;
33654;SDS011;19997;51.274;22.506;2023-05-23T12:36:44;4.68;;;2.67;;
33654;SDS011;19997;51.274;22.506;2023-05-23T12:39:13;3.95;;;2.40;;
33654;SDS011;19997;51.274;22.506;2023-05-23T12:41:41;2.80;;;2.25;;
33654;SDS011;19997;51.274;22.506;2023-05-23T12:44:14;4.47;;;2.40;;
33654;SDS011;19997;51.274;22.506;2023-05-23T12:46:41;3.78;;;2.45;;
33654;SDS011;19997;51.274;22.506;2023-05-23T12:49:09;9.70;;;4.25;;
33654;SDS011;19997;51.274;22.506;2023-05-23T12:51:37;6.18;;;2.42;;
33654;SDS011;19997;51.274;22.506;2023-05-23T12:54:06;3.22;;;2.00;;
33654;SDS011;19997;51.274;22.506;2023-05-23T12:56:34;5.80;;;2.92;;
33654;SDS011;19997;51.274;22.506;2023-05-23T12:59:01;4.28;;;1.80;;
33654;SDS011;19997;51.274;22.506;2023-05-23T13:01:28;2.65;;;2.15;;
33654;SDS011;19997;51.274;22.506;2023-05-23T13:03:55;4.40;;;2.20;;
33654;SDS011;19997;51.274;22.506;2023-05-23T13:06:22;4.65;;;2.22;;
33654;SDS011;19997;51.274;22.506;2023-05-23T13:08:49;8.00;;;2.10;;
33654;SDS011;19997;51.274;22.506;2023-05-23T13:11:20;5.20;;;2.28;;
33654;SDS011;19997;51.274;22.506;2023-05-23T13:13:47;3.38;;;2.08;;
33654;SDS011;19997;51.274;22.506;2023-05-23T13:16:15;5.63;;;2.17;;
33654;SDS011;19997;51.274;22.506;2023-05-23T13:18:42;5.80;;;2.17;;
33654;SDS011;19997;51.274;22.506;2023-05-23T13:21:09;3.33;;;2.28;;
33654;SDS011;19997;51.274;22.506;2023-05-23T13:23:36;8.55;;;1.90;;
33654;SDS011;19997;51.274;22.506;2023-05-23T13:26:03;1.90;;;1.70;;
33654;SDS011;19997;51.274;22.506;2023-05-23T13:28:33;3.03;;;2.00;;
33654;SDS011;19997;51.274;22.506;2023-05-23T13:31:00;2.13;;;1.92;;
33654;SDS011;19997;51.274;22.506;2023-05-23T13:33:27;6.40;;;2.00;;
33654;SDS011;19997;51.274;22.506;2023-05-23T13:35:55;2.95;;;2.00;;
33654;SDS011;19997;51.274;22.506;2023-05-23T13:38:22;9.15;;;2.58;;
33654;SDS011;19997;51.274;22.506;2023-05-23T13:40:52;4.03;;;2.15;;
33654;SDS011;19997;51.274;22.506;2023-05-23T13:43:19;6.50;;;2.03;;
33654;SDS011;19997;51.274;22.506;2023-05-23T13:45:48;4.88;;;2.55;;
33654;SDS011;19997;51.274;22.506;2023-05-23T13:48:15;6.05;;;2.40;;
33654;SDS011;19997;51.274;22.506;2023-05-23T13:50:42;7.90;;;2.13;;
33654;SDS011;19997;51.274;22.506;2023-05-23T13:53:10;3.53;;;2.38;;
33654;SDS011;19997;51.274;22.506;2023-05-23T13:55:40;3.42;;;1.98;;
33654;SDS011;19997;51.274;22.506;2023-05-23T13:58:09;4.45;;;2.50;;
33654;SDS011;19997;51.274;22.506;2023-05-23T14:00:37;5.47;;;2.25;;
33654;SDS011;19997;51.274;22.506;2023-05-23T14:03:05;5.57;;;2.25;;
33654;SDS011;19997;51.274;22.506;2023-05-23T14:05:33;5.10;;;2.03;;
33654;SDS011;19997;51.274;22.506;2023-05-23T14:08:00;4.03;;;2.50;;
33654;SDS011;19997;51.274;22.506;2023-05-23T14:10:28;3.78;;;2.40;;
33654;SDS011;19997;51.274;22.506;2023-05-23T14:12:57;5.97;;;3.88;;
33654;SDS011;19997;51.274;22.506;2023-05-23T14:15:25;7.07;;;2.35;;
33654;SDS011;19997;51.274;22.506;2023-05-23T14:17:52;6.63;;;2.28;;
33654;SDS011;19997;51.274;22.506;2023-05-23T14:20:22;3.88;;;2.38;;
33654;SDS011;19997;51.274;22.506;2023-05-23T14:22:50;5.28;;;2.35;;
33654;SDS011;19997;51.274;22.506;2023-05-23T14:25:17;3.40;;;2.00;;
33654;SDS011;19997;51.274;22.506;2023-05-23T14:27:44;6.97;;;2.50;;
33654;SDS011;19997;51.274;22.506;2023-05-23T14:30:11;6.93;;;3.42;;
33654;SDS011;19997;51.274;22.506;2023-05-23T14:32:38;7.18;;;2.10;;
33654;SDS011;19997;51.274;22.506;2023-05-23T14:35:06;7.45;;;2.38;;
33654;SDS011;19997;51.274;22.506;2023-05-23T14:37:38;4.75;;;2.22;;
33654;SDS011;19997;51.274;22.506;2023-05-23T14:40:06;5.30;;;2.83;;
33654;SDS011;19997;51.274;22.506;2023-05-23T14:42:34;4.57;;;2.65;;
33654;SDS011;19997;51.274;22.506;2023-05-23T14:45:02;2.97;;;1.83;;
33654;SDS011;19997;51.274;22.506;2023-05-23T14:47:29;5.63;;;2.28;;
33654;SDS011;19997;51.274;22.506;2023-05-23T14:49:56;7.55;;;3.65;;
33654;SDS011;19997;51.274;22.506;2023-05-23T14:52:23;3.75;;;2.40;;
33654;SDS011;19997;51.274;22.506;2023-05-23T14:54:52;4.45;;;2.28;;
33654;SDS011;19997;51.274;22.506;2023-05-23T14:57:19;2.78;;;2.20;;
33654;SDS011;19997;51.274;22.506;2023-05-23T14:59:46;4.93;;;3.47;;